Greenville Spartanburg International Airport Greenville US
ICAO: KGSP
IATA: GSP
Category: Large
Scheduled Services: Yes

Elevation: 964 ft
TransAlt. 18000 ft.

Airport Communications:
GREER APP/DEP:120.6
ATIS:134.25
CTAF:120.1
GREER GND:121.9
GREER TWR:120.1
UNICOM:122.95

KGSP Zoom In..

If you have problems with the map follow the link
https://www.worldairports.se/pages/airport.php?
ICAO=KGSP

Runways:

(A) RW 04 length 11001 ft width 150 ft
ILS 109.30 / hdg 38

(B) RW 22 length 11001 ft width 150 ft
ILS 110.70 / hdg 218

Location; KGSP
Day. 14 / Time. 03.53 Zulu
* Altimeter: 29.75
* Temperature: 07° c. 44.6°f.
* Wind from: 020° Speed 06 kn.
Dewpoint: 06° c.
Visibility: 10 Statute Miles.
Clouds: Overcast 300 ft.

KGSP 140353Z 02006KT 10SM OVC003 07/06 A2975 RMK AO2 RAE15 SLP076 P0003 T00720056


Wind From 020°
Speed 06 kn.

 
 
jpsmedia worldairports.se 2019   terms of use